createdAt,value
2018-11-27T00:02:22.507Z,6.20
2018-11-27T00:04:52.688Z,6.20
2018-11-27T00:07:22.860Z,6.20
2018-11-27T00:09:53.031Z,6.20
2018-11-27T00:12:23.209Z,6.20
2018-11-27T00:14:53.389Z,6.20
2018-11-27T00:17:23.549Z,6.20
2018-11-27T00:19:53.682Z,6.20
2018-11-27T00:22:23.850Z,6.20
2018-11-27T00:24:53.983Z,6.10
2018-11-27T00:27:24.162Z,6.10
2018-11-27T00:29:54.383Z,6.00
2018-11-27T00:32:24.577Z,5.90
2018-11-27T00:34:54.744Z,5.90
2018-11-27T00:37:24.901Z,5.90
2018-11-27T00:39:55.091Z,5.80
2018-11-27T00:42:25.306Z,5.70
2018-11-27T00:44:55.517Z,5.70
2018-11-27T00:47:25.731Z,5.60
2018-11-27T00:49:55.897Z,5.50
2018-11-27T00:52:26.090Z,5.60
2018-11-27T00:54:58.686Z,5.50
2018-11-27T00:57:26.469Z,5.50
2018-11-27T00:59:56.677Z,5.40
2018-11-27T01:02:26.807Z,5.50
2018-11-27T01:04:56.959Z,5.40
2018-11-27T01:07:27.163Z,5.40
2018-11-27T01:09:57.310Z,5.30
2018-11-27T01:12:27.497Z,5.30
2018-11-27T01:14:57.582Z,5.30
2018-11-27T01:17:27.681Z,5.20
2018-11-27T01:19:57.836Z,5.20
2018-11-27T01:22:28.026Z,5.20
2018-11-27T01:24:58.208Z,5.20
2018-11-27T01:27:28.367Z,5.20
2018-11-27T01:29:58.531Z,5.30
2018-11-27T01:32:28.709Z,5.30
2018-11-27T01:34:58.893Z,5.30
2018-11-27T01:37:29.074Z,5.30
2018-11-27T01:39:59.247Z,5.30
2018-11-27T01:42:29.453Z,5.30
2018-11-27T01:44:59.602Z,5.30
2018-11-27T01:47:29.777Z,5.40
2018-11-27T01:49:59.948Z,5.40
2018-11-27T01:52:30.098Z,5.30
2018-11-27T01:55:00.291Z,5.40
2018-11-27T01:57:30.478Z,5.30
2018-11-27T02:00:00.615Z,5.40
2018-11-27T02:02:30.837Z,5.30
2018-11-27T02:05:01.047Z,5.30
2018-11-27T02:07:31.231Z,5.20
2018-11-27T02:10:01.502Z,5.30
2018-11-27T02:12:31.769Z,5.20
2018-11-27T02:15:01.924Z,5.30
2018-11-27T02:17:32.190Z,5.30
2018-11-27T02:20:02.405Z,5.30
2018-11-27T02:22:32.691Z,5.30
2018-11-27T02:25:03.087Z,5.20
2018-11-27T02:27:33.461Z,5.20
2018-11-27T02:30:03.707Z,5.20
2018-11-27T02:32:33.861Z,5.20
2018-11-27T02:35:04.247Z,5.10
2018-11-27T02:37:34.397Z,5.10
2018-11-27T02:40:05.289Z,5.00
2018-11-27T02:42:35.451Z,5.00
2018-11-27T02:45:07.256Z,4.80
2018-11-27T02:47:37.405Z,4.80
2018-11-27T02:50:11.058Z,4.90
2018-11-27T02:52:41.355Z,4.90
2018-11-27T02:55:15.010Z,4.80
2018-11-27T02:57:45.136Z,4.80
2018-11-27T03:00:18.615Z,4.90
2018-11-27T03:02:48.814Z,5.00
2018-11-27T03:05:30.261Z,4.90
2018-11-27T03:08:00.403Z,4.90
2018-11-27T03:10:30.518Z,5.00
2018-11-27T03:13:00.712Z,5.10
2018-11-27T03:15:30.870Z,5.10
2018-11-27T03:18:01.069Z,5.10
2018-11-27T03:20:31.231Z,5.10
2018-11-27T03:23:01.417Z,5.20
2018-11-27T03:25:31.619Z,5.20
2018-11-27T03:28:02.528Z,5.20
2018-11-27T03:33:49.450Z,5.20
2018-11-27T03:36:19.581Z,5.20
2018-11-27T03:38:49.760Z,5.20
2018-11-27T03:41:19.898Z,5.10
2018-11-27T03:43:49.966Z,5.20
2018-11-27T03:46:20.109Z,5.20
2018-11-27T03:48:50.237Z,5.20
2018-11-27T03:51:20.384Z,5.20
2018-11-27T03:53:50.766Z,5.30
2018-11-27T03:56:20.978Z,5.20
2018-11-27T03:58:51.133Z,5.20
2018-11-27T04:01:21.454Z,5.10
2018-11-27T04:03:51.621Z,5.20
2018-11-27T04:06:21.801Z,5.10
2018-11-27T04:08:51.993Z,5.20
2018-11-27T04:11:22.136Z,5.10
2018-11-27T04:13:52.354Z,5.10
2018-11-27T04:16:22.497Z,5.10
2018-11-27T04:18:52.765Z,5.20
2018-11-27T04:21:22.933Z,5.30
2018-11-27T04:23:53.139Z,5.20
2018-11-27T04:26:23.277Z,5.30
2018-11-27T04:28:53.619Z,5.20
2018-11-27T04:31:23.729Z,5.20
2018-11-27T04:33:53.924Z,5.30
2018-11-27T04:36:24.087Z,5.20
2018-11-27T04:38:54.298Z,5.30
2018-11-27T04:41:24.423Z,5.30
2018-11-27T04:44:01.222Z,5.30
2018-11-27T04:46:31.386Z,5.30
2018-11-27T04:49:01.522Z,5.30
2018-11-27T04:51:31.733Z,5.30
2018-11-27T04:54:01.908Z,5.30
2018-11-27T04:56:32.063Z,5.30
2018-11-27T04:59:02.198Z,5.30
2018-11-27T05:01:32.303Z,5.30
2018-11-27T05:04:02.419Z,5.30
2018-11-27T05:06:32.568Z,5.30
2018-11-27T05:09:02.911Z,5.30
2018-11-27T05:11:33.129Z,5.40
2018-11-27T05:14:03.338Z,5.40
2018-11-27T05:16:33.563Z,5.30
2018-11-27T05:19:03.782Z,5.30
2018-11-27T05:21:34.018Z,5.30
2018-11-27T05:24:04.199Z,5.40
2018-11-27T05:26:34.475Z,5.40
2018-11-27T05:29:04.636Z,5.50
2018-11-27T05:31:34.830Z,5.50
2018-11-27T05:36:47.502Z,5.60
2018-11-27T05:39:17.713Z,5.70
2018-11-27T05:41:47.879Z,5.60
2018-11-27T05:44:18.034Z,5.70
2018-11-27T05:46:48.245Z,5.70
2018-11-27T05:49:18.419Z,5.70
2018-11-27T05:51:48.545Z,5.60
2018-11-27T05:54:18.717Z,5.60
2018-11-27T05:56:48.952Z,5.60
2018-11-27T05:59:19.089Z,5.60
2018-11-27T06:01:49.309Z,5.60
2018-11-27T06:04:19.503Z,5.50
2018-11-27T06:06:49.756Z,5.50
2018-11-27T06:09:19.933Z,5.40
2018-11-27T06:11:50.148Z,5.40
2018-11-27T06:14:20.485Z,5.50
2018-11-27T06:16:50.667Z,5.60
2018-11-27T06:19:20.867Z,5.70
2018-11-27T06:21:50.999Z,5.70
2018-11-27T06:24:21.138Z,5.70
2018-11-27T06:26:51.282Z,5.70
2018-11-27T06:29:21.432Z,5.70
2018-11-27T06:31:51.697Z,5.70
2018-11-27T06:34:21.856Z,5.70
2018-11-27T06:36:51.985Z,5.80
2018-11-27T06:39:22.150Z,5.80
2018-11-27T06:41:52.429Z,5.70
2018-11-27T06:44:29.474Z,5.70
2018-11-27T06:46:59.641Z,5.80
2018-11-27T06:49:29.865Z,5.70
2018-11-27T06:52:00.032Z,5.60
2018-11-27T06:54:30.201Z,5.60
2018-11-27T06:57:00.260Z,5.50
2018-11-27T06:59:30.377Z,5.50
2018-11-27T07:02:00.538Z,5.40
2018-11-27T07:04:30.728Z,5.40
2018-11-27T07:07:00.887Z,5.40
2018-11-27T07:09:31.033Z,5.40
2018-11-27T07:12:01.230Z,5.50
2018-11-27T07:14:31.394Z,5.40
2018-11-27T07:17:01.608Z,5.40
2018-11-27T07:19:31.750Z,5.50
2018-11-27T07:22:02.117Z,5.60
2018-11-27T07:24:32.442Z,5.60
2018-11-27T07:27:02.730Z,5.50
2018-11-27T07:29:32.948Z,5.50
2018-11-27T07:32:03.305Z,5.60
2018-11-27T07:34:33.505Z,5.60
2018-11-27T07:37:03.726Z,5.60
2018-11-27T07:39:34.036Z,5.60
2018-11-27T07:42:04.261Z,5.70
2018-11-27T07:44:34.429Z,5.70
2018-11-27T07:47:04.641Z,5.70
2018-11-27T07:49:34.807Z,5.70
2018-11-27T07:52:05.260Z,5.70
2018-11-27T07:54:35.438Z,5.70
2018-11-27T07:57:05.592Z,5.60
2018-11-27T07:59:35.747Z,5.60
2018-11-27T08:02:06.887Z,5.60
2018-11-27T08:04:37.047Z,5.50
2018-11-27T08:07:07.875Z,5.60
2018-11-27T08:09:38.353Z,5.50
2018-11-27T08:12:08.556Z,5.60
2018-11-27T08:14:38.786Z,5.60
2018-11-27T08:17:08.995Z,5.50
2018-11-27T08:19:39.237Z,5.60
2018-11-27T08:22:09.423Z,5.60
2018-11-27T08:24:39.546Z,5.60
2018-11-27T08:27:09.756Z,5.50
2018-11-27T08:29:40.003Z,5.50
2018-11-27T08:32:10.150Z,5.40
2018-11-27T08:34:40.315Z,5.40
2018-11-27T08:37:10.511Z,5.40
2018-11-27T08:39:40.668Z,5.40
2018-11-27T08:42:10.841Z,5.50
2018-11-27T08:44:40.978Z,5.50
2018-11-27T08:47:11.117Z,5.50
2018-11-27T08:49:41.334Z,5.50
2018-11-27T08:52:11.425Z,5.50
2018-11-27T08:54:41.589Z,5.50
2018-11-27T08:57:11.820Z,5.60
2018-11-27T08:59:42.000Z,5.50
2018-11-27T09:02:12.069Z,5.60
2018-11-27T09:04:42.232Z,5.50
2018-11-27T09:07:12.379Z,5.50
2018-11-27T09:09:42.519Z,5.60
2018-11-27T09:12:12.741Z,5.70
2018-11-27T09:14:42.896Z,5.70
2018-11-27T09:17:13.053Z,5.60
2018-11-27T09:19:43.169Z,5.50
2018-11-27T09:22:13.368Z,5.50
2018-11-27T09:24:43.534Z,5.60
2018-11-27T09:27:13.723Z,5.60
2018-11-27T09:29:43.954Z,5.60
2018-11-27T09:32:14.144Z,5.60
2018-11-27T09:34:44.344Z,5.60
2018-11-27T09:37:14.550Z,5.70
2018-11-27T09:39:44.664Z,5.70
2018-11-27T09:42:14.829Z,5.70
2018-11-27T09:44:44.997Z,5.70
2018-11-27T09:47:15.121Z,5.70
2018-11-27T09:49:45.299Z,5.60
2018-11-27T09:52:15.411Z,5.70
2018-11-27T09:54:45.635Z,5.70
2018-11-27T09:57:15.757Z,5.70
2018-11-27T09:59:45.946Z,5.70
2018-11-27T10:02:16.118Z,5.70
2018-11-27T10:04:46.205Z,5.70
2018-11-27T10:07:16.476Z,5.80
2018-11-27T10:09:46.682Z,5.70
2018-11-27T10:12:16.854Z,5.70
2018-11-27T10:14:47.025Z,5.70
2018-11-27T10:17:17.230Z,5.70
2018-11-27T10:19:47.505Z,5.70
2018-11-27T10:22:17.664Z,5.50
2018-11-27T10:24:47.969Z,5.50
2018-11-27T10:27:24.609Z,5.50
2018-11-27T10:29:54.768Z,5.60
2018-11-27T10:32:24.880Z,5.50
2018-11-27T10:34:55.064Z,5.50
2018-11-27T10:37:25.198Z,5.50
2018-11-27T10:39:55.400Z,5.60
2018-11-27T10:42:30.069Z,5.50
2018-11-27T10:44:58.959Z,5.70
2018-11-27T10:47:29.110Z,5.70
2018-11-27T10:49:59.234Z,5.70
2018-11-27T10:52:29.445Z,5.80
2018-11-27T10:54:59.597Z,5.80
2018-11-27T10:57:29.750Z,5.90
2018-11-27T10:59:59.931Z,5.90
2018-11-27T11:02:34.413Z,6.00
2018-11-27T11:05:05.445Z,6.10
2018-11-27T11:07:35.591Z,6.10
2018-11-27T11:10:07.119Z,6.10
2018-11-27T11:12:37.314Z,6.00
2018-11-27T11:15:08.449Z,6.00
2018-11-27T11:17:38.573Z,6.00
2018-11-27T11:20:09.790Z,6.10
2018-11-27T11:22:39.935Z,6.00
2018-11-27T11:25:21.946Z,5.90
2018-11-27T11:27:58.086Z,6.00
2018-11-27T11:30:28.308Z,6.00
2018-11-27T11:32:58.455Z,6.00
2018-11-27T11:35:28.619Z,6.00
2018-11-27T11:37:58.783Z,5.90
2018-11-27T11:40:28.987Z,5.90
2018-11-27T11:42:59.171Z,5.90
2018-11-27T11:45:29.327Z,6.00
2018-11-27T11:47:59.443Z,6.00
2018-11-27T11:50:32.147Z,5.90
2018-11-27T11:53:07.269Z,5.90
2018-11-27T11:55:37.397Z,5.90
2018-11-27T11:58:08.564Z,6.00
2018-11-27T12:00:43.593Z,6.00
2018-11-27T12:03:13.904Z,6.00
2018-11-27T12:05:44.201Z,6.00
2018-11-27T12:08:14.539Z,6.00
2018-11-27T12:10:44.803Z,5.90
2018-11-27T12:13:15.091Z,6.00
2018-11-27T12:15:45.230Z,6.00
2018-11-27T12:18:15.501Z,6.00
2018-11-27T12:20:46.128Z,6.00
2018-11-27T12:23:16.347Z,6.00
2018-11-27T12:25:46.496Z,6.10
2018-11-27T12:28:16.786Z,6.10
2018-11-27T12:30:46.978Z,6.10
2018-11-27T12:33:17.117Z,6.10
2018-11-27T12:35:47.271Z,6.10
2018-11-27T12:38:17.409Z,6.10
2018-11-27T12:40:47.473Z,6.00
2018-11-27T12:43:17.633Z,6.10
2018-11-27T12:45:47.792Z,6.10
2018-11-27T12:48:17.923Z,6.10
2018-11-27T12:50:49.381Z,6.00
2018-11-27T12:53:19.906Z,6.00
2018-11-27T12:55:51.369Z,6.00
2018-11-27T12:58:21.550Z,6.00
2018-11-27T13:00:51.696Z,6.00
2018-11-27T13:03:21.881Z,6.00
2018-11-27T13:05:52.063Z,6.10
2018-11-27T13:08:24.212Z,6.10
2018-11-27T13:10:54.482Z,6.10
2018-11-27T13:13:24.733Z,6.10
2018-11-27T13:15:54.889Z,6.10
2018-11-27T13:18:25.037Z,6.10
2018-11-27T13:20:55.201Z,6.10
2018-11-27T13:23:25.331Z,6.10
2018-11-27T13:25:55.775Z,6.10
2018-11-27T13:28:25.970Z,6.10
2018-11-27T13:31:00.121Z,6.10
2018-11-27T13:33:51.064Z,6.10
2018-11-27T13:36:21.237Z,6.10
2018-11-27T13:38:51.382Z,6.10
2018-11-27T13:41:21.544Z,6.10
2018-11-27T13:43:51.632Z,6.00
2018-11-27T13:46:21.805Z,6.00
2018-11-27T13:48:51.945Z,6.00
2018-11-27T13:51:22.088Z,6.00
2018-11-27T13:53:52.222Z,6.00
2018-11-27T13:56:22.440Z,6.00
2018-11-27T13:58:52.609Z,6.00
2018-11-27T14:01:22.818Z,6.00
2018-11-27T14:03:53.044Z,6.00
2018-11-27T14:06:23.208Z,6.00
2018-11-27T14:08:53.363Z,6.00
2018-11-27T14:11:23.540Z,6.00
2018-11-27T14:13:53.670Z,6.00
2018-11-27T14:16:23.956Z,5.90
2018-11-27T14:18:54.143Z,5.90
2018-11-27T14:21:24.335Z,5.80
2018-11-27T14:23:54.475Z,5.80
2018-11-27T14:26:24.678Z,5.80
2018-11-27T14:28:54.804Z,5.80
2018-11-27T14:31:24.952Z,5.80
2018-11-27T14:33:55.101Z,5.90
2018-11-27T14:36:26.019Z,5.80
2018-11-27T14:38:56.161Z,5.80
2018-11-27T14:41:26.306Z,5.70
2018-11-27T14:43:56.513Z,5.70
2018-11-27T14:46:26.645Z,5.60
2018-11-27T14:48:56.795Z,5.80
2018-11-27T14:51:27.205Z,5.80
2018-11-27T14:53:57.402Z,6.00
2018-11-27T14:56:27.636Z,6.00
2018-11-27T14:58:57.926Z,6.20
2018-11-27T15:01:28.107Z,6.20
2018-11-27T15:03:58.330Z,6.20
2018-11-27T15:06:28.514Z,6.20
2018-11-27T15:08:58.807Z,6.10
2018-11-27T15:11:29.410Z,6.00
2018-11-27T15:13:59.584Z,5.90
2018-11-27T15:16:29.756Z,5.90
2018-11-27T15:18:59.897Z,5.90
2018-11-27T15:21:30.096Z,5.90
2018-11-27T15:24:00.237Z,5.90
2018-11-27T15:26:30.393Z,5.90
2018-11-27T15:29:00.578Z,5.90
2018-11-27T15:31:30.728Z,5.90
2018-11-27T15:34:00.861Z,5.90
2018-11-27T15:36:31.049Z,5.90
2018-11-27T15:39:01.147Z,5.90
2018-11-27T15:41:31.247Z,5.90
2018-11-27T15:44:01.478Z,5.90
2018-11-27T15:46:31.693Z,5.90
2018-11-27T15:49:01.873Z,5.90
2018-11-27T15:51:32.033Z,5.90
2018-11-27T15:54:02.117Z,5.90
2018-11-27T15:56:32.280Z,5.90
2018-11-27T15:59:02.467Z,5.90
2018-11-27T16:01:32.618Z,5.80
2018-11-27T16:04:02.787Z,5.90
2018-11-27T16:06:32.947Z,6.00
2018-11-27T16:09:03.125Z,6.00
2018-11-27T16:11:33.373Z,6.00
2018-11-27T16:14:03.407Z,6.00
2018-11-27T16:16:33.619Z,6.00
2018-11-27T16:19:03.847Z,6.00
2018-11-27T16:21:33.936Z,6.00
2018-11-27T16:24:04.137Z,6.10
2018-11-27T16:26:34.277Z,6.10
2018-11-27T16:29:04.461Z,6.20
2018-11-27T16:31:34.610Z,6.20
2018-11-27T16:34:04.821Z,6.20
2018-11-27T16:36:35.021Z,6.20
2018-11-27T16:39:09.377Z,6.20
2018-11-27T16:41:40.556Z,6.10
2018-11-27T16:44:10.782Z,6.10
2018-11-27T16:46:40.921Z,6.10
2018-11-27T16:49:11.105Z,6.20
2018-11-27T16:51:41.241Z,6.20
2018-11-27T16:54:11.437Z,6.30
2018-11-27T16:56:41.623Z,6.40
2018-11-27T16:59:11.787Z,6.40
2018-11-27T17:01:41.924Z,6.40
2018-11-27T17:04:12.101Z,6.40
2018-11-27T17:06:42.240Z,6.40
2018-11-27T17:09:12.405Z,6.50
2018-11-27T17:11:42.616Z,6.50
2018-11-27T17:14:12.809Z,6.40
2018-11-27T17:16:42.943Z,6.40
2018-11-27T17:19:13.092Z,6.40
2018-11-27T17:21:43.318Z,6.30
2018-11-27T17:24:13.432Z,6.30
2018-11-27T17:26:43.557Z,6.30
2018-11-27T17:29:13.785Z,6.40
2018-11-27T17:31:43.928Z,6.40
2018-11-27T17:34:16.172Z,6.30
2018-11-27T17:36:46.401Z,6.40
2018-11-27T17:39:16.598Z,6.40
2018-11-27T17:41:46.713Z,6.50
2018-11-27T17:44:17.886Z,6.50
2018-11-27T17:46:48.146Z,6.50
2018-11-27T17:49:18.411Z,6.40
2018-11-27T17:51:48.538Z,6.30
2018-11-27T17:54:18.665Z,6.30
2018-11-27T17:56:48.883Z,6.30
2018-11-27T17:59:19.170Z,6.40
2018-11-27T18:01:49.142Z,6.40
2018-11-27T18:04:19.313Z,6.40
2018-11-27T18:06:49.436Z,6.40
2018-11-27T18:09:19.565Z,6.40
2018-11-27T18:11:49.715Z,6.40
2018-11-27T18:14:19.897Z,6.50
2018-11-27T18:16:50.022Z,6.50
2018-11-27T18:19:20.210Z,6.60
2018-11-27T18:21:50.496Z,6.60
2018-11-27T18:24:20.699Z,6.60
2018-11-27T18:26:50.949Z,6.60
2018-11-27T18:29:21.187Z,6.60
2018-11-27T18:31:51.527Z,6.60
2018-11-27T18:34:21.988Z,6.60
2018-11-27T18:36:52.429Z,6.70
2018-11-27T18:39:22.819Z,6.70
2018-11-27T18:41:53.276Z,6.70
2018-11-27T18:44:23.594Z,6.70
2018-11-27T18:46:53.994Z,6.80
2018-11-27T18:49:24.197Z,6.80
2018-11-27T18:51:54.416Z,6.80
2018-11-27T18:54:24.649Z,6.70
2018-11-27T18:56:54.901Z,6.80
2018-11-27T18:59:25.071Z,6.80
2018-11-27T19:01:55.289Z,6.90
2018-11-27T19:04:25.527Z,7.00
2018-11-27T19:06:55.666Z,7.00
2018-11-27T19:09:25.888Z,7.10
2018-11-27T19:11:56.038Z,7.10
2018-11-27T19:14:26.228Z,7.10
2018-11-27T19:16:56.371Z,7.10
2018-11-27T19:19:26.564Z,7.10
2018-11-27T19:21:56.733Z,7.00
2018-11-27T19:24:27.142Z,6.90
2018-11-27T19:26:57.334Z,6.90
2018-11-27T19:29:27.510Z,6.90
2018-11-27T19:31:57.720Z,6.90
2018-11-27T19:34:27.884Z,6.90
2018-11-27T19:36:58.024Z,6.80
2018-11-27T19:39:28.231Z,6.70
2018-11-27T19:41:58.409Z,6.70
2018-11-27T19:44:28.590Z,6.60
2018-11-27T19:46:58.773Z,6.60
2018-11-27T19:49:31.194Z,6.60
2018-11-27T19:52:01.330Z,6.60
2018-11-27T19:54:31.488Z,6.60
2018-11-27T19:57:01.605Z,6.60
2018-11-27T19:59:31.744Z,6.50
2018-11-27T20:02:02.030Z,6.50
2018-11-27T20:04:32.216Z,6.50
2018-11-27T20:07:07.477Z,6.50
2018-11-27T20:09:37.614Z,6.40
2018-11-27T20:12:07.826Z,6.40
2018-11-27T20:14:38.032Z,6.30
2018-11-27T20:17:08.231Z,6.20
2018-11-27T20:19:38.370Z,6.10
2018-11-27T20:22:08.576Z,6.10
2018-11-27T20:24:38.734Z,6.00
2018-11-27T20:27:08.940Z,5.90
2018-11-27T20:29:39.164Z,5.90
2018-11-27T20:32:09.368Z,5.80
2018-11-27T20:34:39.506Z,5.80
2018-11-27T20:37:09.639Z,5.80
2018-11-27T20:39:39.840Z,5.80
2018-11-27T20:42:09.983Z,5.80
2018-11-27T20:44:40.218Z,5.90
2018-11-27T20:47:10.426Z,6.00
2018-11-27T20:49:40.986Z,6.00
2018-11-27T20:52:11.170Z,6.00
2018-11-27T20:54:41.372Z,6.00
2018-11-27T20:57:11.531Z,5.90
2018-11-27T20:59:41.634Z,5.90
2018-11-27T21:02:11.833Z,5.90
2018-11-27T21:04:42.024Z,6.00
2018-11-27T21:07:12.266Z,6.00
2018-11-27T21:09:42.409Z,6.00
2018-11-27T21:12:12.565Z,6.00
2018-11-27T21:14:42.706Z,6.00
2018-11-27T21:17:12.826Z,6.00
2018-11-27T21:19:42.955Z,5.90
2018-11-27T21:22:13.102Z,5.90
2018-11-27T21:24:43.239Z,6.00
2018-11-27T21:27:13.331Z,6.00
2018-11-27T21:29:43.468Z,6.00
2018-11-27T21:32:13.576Z,6.00
2018-11-27T21:34:43.705Z,5.90
2018-11-27T21:37:13.808Z,5.90
2018-11-27T21:39:43.920Z,5.80
2018-11-27T21:42:14.114Z,5.80
2018-11-27T21:44:44.248Z,5.70
2018-11-27T21:47:14.436Z,5.70
2018-11-27T21:49:44.640Z,5.60
2018-11-27T21:52:14.738Z,5.60
2018-11-27T21:54:44.933Z,5.60
2018-11-27T21:57:15.078Z,5.50
2018-11-27T21:59:45.196Z,5.50
2018-11-27T22:04:58.396Z,5.50
2018-11-27T22:07:28.585Z,5.50
2018-11-27T22:09:58.822Z,5.50
2018-11-27T22:12:28.991Z,5.50
2018-11-27T22:14:59.166Z,5.50
2018-11-27T22:17:29.348Z,5.60
2018-11-27T22:19:59.485Z,5.60
2018-11-27T22:22:29.644Z,5.50
2018-11-27T22:24:59.846Z,5.60
2018-11-27T22:27:30.018Z,5.60
2018-11-27T22:30:00.243Z,5.60
2018-11-27T22:32:30.459Z,5.60
2018-11-27T22:35:00.655Z,5.70
2018-11-27T22:37:30.918Z,5.70
2018-11-27T22:40:01.130Z,5.70
2018-11-27T22:42:31.298Z,5.70
2018-11-27T22:45:01.459Z,5.80
2018-11-27T22:47:31.649Z,5.70
2018-11-27T22:50:01.835Z,5.70
2018-11-27T22:52:32.006Z,5.70
2018-11-27T22:55:02.193Z,5.70
2018-11-27T22:57:32.338Z,5.70
2018-11-27T23:00:02.581Z,5.70
2018-11-27T23:02:35.741Z,5.70
2018-11-27T23:05:06.233Z,5.70
2018-11-27T23:07:42.749Z,5.70
2018-11-27T23:10:14.193Z,5.70
2018-11-27T23:12:44.682Z,5.70
2018-11-27T23:15:17.982Z,5.70
2018-11-27T23:17:48.187Z,5.60
2018-11-27T23:20:19.437Z,5.60
2018-11-27T23:22:49.676Z,5.60
2018-11-27T23:25:20.277Z,5.50
2018-11-27T23:27:50.472Z,5.50
2018-11-27T23:30:22.762Z,5.40
2018-11-27T23:32:53.025Z,5.40
2018-11-27T23:35:23.154Z,5.40
2018-11-27T23:37:59.966Z,5.40
2018-11-27T23:40:31.696Z,5.40
2018-11-27T23:43:02.045Z,5.40
2018-11-27T23:45:32.245Z,5.40
2018-11-27T23:48:02.386Z,5.40
2018-11-27T23:50:32.554Z,5.40
2018-11-27T23:53:02.796Z,5.30
2018-11-27T23:55:33.009Z,5.30
2018-11-27T23:58:03.212Z,5.30
